Time;durP1;ratioP1;P1;durP2;ratioP2;P2;SDS_P1;SDS_P2;PMS_P1;PMS_P2;Temp;Humidity;BMP_temperature;BMP_pressure;BME280_temperature;BME280_humidity;BME280_pressure;Samples;Min_cycle;Max_cycle;Signal;HPM_P1;HPM_P2
2023/05/24 00:00:40;;;;;;;19.63;3.50;;;;;;;16.65;43.73;101451.53;5022787;27;96761;-75
2023/05/24 00:03:07;;;;;;;12.43;2.58;;;;;;;16.41;44.38;101451.84;5022736;27;99282;-75
2023/05/24 00:05:36;;;;;;;11.65;1.85;;;;;;;16.49;44.06;101446.97;5025889;27;99395;-74
2023/05/24 00:08:04;;;;;;;13.18;2.63;;;;;;;16.51;44.00;101453.09;5025095;27;96793;-75
2023/05/24 00:10:30;;;;;;;15.80;2.80;;;;;;;16.58;43.74;101462.53;5020945;27;97389;-76
2023/05/24 00:12:56;;;;;;;14.77;3.03;;;;;;;16.61;43.39;101457.94;5022778;27;98891;-75
2023/05/24 00:15:23;;;;;;;15.02;3.00;;;;;;;16.49;43.78;101460.31;5021809;27;98878;-75
2023/05/24 00:17:50;;;;;;;13.75;2.92;;;;;;;16.53;43.55;101459.25;5022282;27;96869;-75
2023/05/24 00:20:19;;;;;;;12.35;2.65;;;;;;;16.66;43.44;101461.28;5021300;27;97142;-73
2023/05/24 00:22:46;;;;;;;14.88;2.35;;;;;;;16.35;44.09;101464.50;5023792;27;98625;-75
2023/05/24 00:25:13;;;;;;;16.10;2.60;;;;;;;16.52;43.58;101458.38;5024265;27;98065;-75
2023/05/24 00:27:40;;;;;;;11.68;3.00;;;;;;;16.22;44.22;101460.69;5018470;27;96930;-75
2023/05/24 00:30:07;;;;;;;21.27;3.40;;;;;;;16.15;44.17;101466.38;5020467;27;98510;-75
2023/05/24 00:32:34;;;;;;;14.25;2.50;;;;;;;16.38;43.76;101465.31;5021039;27;102067;-74
2023/05/24 00:35:00;;;;;;;11.90;2.78;;;;;;;16.34;43.85;101473.44;5018041;27;98259;-77
2023/05/24 00:37:28;;;;;;;12.70;2.05;;;;;;;16.26;43.69;101475.63;5021774;27;97644;-75
2023/05/24 00:39:56;;;;;;;9.35;2.47;;;;;;;16.25;43.77;101470.38;5013825;27;97004;-75
2023/05/24 00:42:24;;;;;;;19.00;3.10;;;;;;;16.43;43.62;101465.94;5019589;27;99342;-76
2023/05/24 00:44:51;;;;;;;14.50;2.85;;;;;;;16.60;43.23;101466.91;5017947;27;98456;-75
2023/05/24 00:47:17;;;;;;;9.27;2.03;;;;;;;16.60;43.28;101471.38;5024143;27;97122;-75
2023/05/24 00:49:44;;;;;;;15.32;3.13;;;;;;;16.31;43.81;101462.94;5024434;27;97717;-75
2023/05/24 00:52:10;;;;;;;16.98;2.63;;;;;;;16.48;43.41;101462.09;5019648;27;99497;-74
2023/05/24 00:54:39;;;;;;;24.65;2.83;;;;;;;16.49;43.48;101461.19;5017260;27;98848;-75
2023/05/24 00:57:06;;;;;;;14.15;2.58;;;;;;;16.90;42.75;101466.31;5019691;27;96855;-74
2023/05/24 00:59:34;;;;;;;11.32;2.28;;;;;;;16.84;42.68;101463.94;5018763;27;97761;-75
2023/05/24 01:02:00;;;;;;;12.55;2.47;;;;;;;16.85;42.79;101463.00;5021767;27;98930;-75
2023/05/24 01:04:27;;;;;;;10.35;2.20;;;;;;;16.67;42.93;101467.47;5023351;27;98105;-75
2023/05/24 01:07:09;;;;;;;14.27;3.22;;;;;;;16.69;42.71;101462.91;5014615;27;97829;-75
2023/05/24 01:09:49;;;;;;;14.38;2.40;;;;;;;16.65;43.14;101464.00;5018817;27;96939;-74
2023/05/24 01:12:25;;;;;;;10.98;2.22;;;;;;;16.68;43.22;101467.38;5016207;27;97666;-75
2023/05/24 01:15:01;;;;;;;16.02;3.13;;;;;;;16.81;43.17;101462.28;5020420;27;98650;-74
2023/05/24 01:17:32;;;;;;;15.43;3.17;;;;;;;16.77;43.00;101470.53;5021661;27;98634;-73
2023/05/24 01:20:05;;;;;;;14.20;2.65;;;;;;;17.00;42.76;101464.94;5016941;27;96808;-74
2023/05/24 01:23:23;;;;;;;12.27;2.53;;;;;;;16.95;43.13;101466.94;5020674;27;99014;-74
2023/05/24 01:26:17;;;;;;;15.65;3.00;;;;;;;16.71;43.37;101477.91;4943117;28;97973;-74
2023/05/24 01:28:47;;;;;;;26.88;3.03;;;;;;;16.53;43.83;101472.59;4936310;28;96994;-74
2023/05/24 01:31:15;;;;;;;12.20;1.85;;;;;;;16.47;44.17;101472.88;4985407;27;97178;-75
2023/05/24 01:33:42;;;;;;;14.27;2.40;;;;;;;16.60;44.00;101474.91;5016903;27;99016;-73
2023/05/24 01:36:08;;;;;;;14.77;2.40;;;;;;;16.27;44.47;101471.16;5017687;27;98948;-73
2023/05/24 01:38:35;;;;;;;17.05;2.20;;;;;;;16.39;44.66;101475.03;5023476;27;97025;-73
2023/05/24 01:41:10;;;;;;;16.90;2.63;;;;;;;16.39;44.39;101472.38;5018331;27;97192;-76
2023/05/24 01:43:40;;;;;;;13.32;2.35;;;;;;;16.66;43.83;101479.94;5016832;27;100653;-75
2023/05/24 01:46:18;;;;;;;13.98;2.42;;;;;;;16.48;44.29;101475.44;5017193;27;100079;-75
2023/05/24 01:48:55;;;;;;;17.08;2.72;;;;;;;16.69;44.16;101485.13;5016655;27;96843;-75
2023/05/24 01:51:26;;;;;;;20.25;3.38;;;;;;;16.49;44.53;101476.31;5020082;27;97816;-74
2023/05/24 01:53:55;;;;;;;23.52;2.95;;;;;;;16.81;44.05;101477.44;5016116;27;99265;-75
2023/05/24 01:56:22;;;;;;;17.73;2.47;;;;;;;16.35;45.13;101480.50;5021278;27;98988;-76
2023/05/24 01:58:52;;;;;;;21.15;2.85;;;;;;;16.45;45.20;101480.09;5018164;27;98274;-75
2023/05/24 02:01:20;;;;;;;16.73;2.80;;;;;;;16.39;45.26;101475.91;5017757;27;96940;-75
2023/05/24 02:03:47;;;;;;;16.50;2.60;;;;;;;16.40;45.29;101479.44;5020997;27;98941;-75
2023/05/24 02:06:13;;;;;;;14.55;2.65;;;;;;;16.31;45.50;101483.41;5019543;27;97880;-75
2023/05/24 02:08:40;;;;;;;14.63;2.67;;;;;;;16.43;45.49;101477.47;5023958;27;96841;-75
2023/05/24 02:11:06;;;;;;;16.33;2.38;;;;;;;16.37;45.48;101477.78;5024536;27;96946;-75
2023/05/24 02:13:32;;;;;;;15.23;2.85;;;;;;;16.65;44.88;101480.00;5017324;27;99149;-76
2023/05/24 02:15:59;;;;;;;13.82;2.47;;;;;;;16.72;44.73;101478.78;5023253;27;99238;-76
2023/05/24 02:18:26;;;;;;;16.98;2.63;;;;;;;16.54;45.03;101476.97;5020648;27;97667;-76
2023/05/24 02:20:53;;;;;;;18.50;3.35;;;;;;;16.49;45.44;101473.66;5017987;27;98291;-76
2023/05/24 02:23:19;;;;;;;15.90;2.70;;;;;;;16.52;45.08;101470.84;5016511;27;99037;-75
2023/05/24 02:25:45;;;;;;;12.00;2.47;;;;;;;16.68;45.07;101480.72;5022803;27;98219;-74
2023/05/24 02:28:12;;;;;;;12.00;2.22;;;;;;;16.71;44.91;101477.91;5025158;27;96882;-75
2023/05/24 02:30:38;;;;;;;16.90;3.10;;;;;;;16.71;44.96;101474.38;5023733;27;96931;-74
2023/05/24 02:33:05;;;;;;;15.90;2.97;;;;;;;16.53;45.38;101473.44;5025000;27;98941;-74
2023/05/24 02:35:33;;;;;;;18.67;2.95;;;;;;;16.50;45.45;101467.38;5024384;27;99072;-74
2023/05/24 02:38:00;;;;;;;10.30;2.13;;;;;;;16.74;44.96;101468.88;5021782;27;97195;-74
2023/05/24 02:40:26;;;;;;;14.65;2.50;;;;;;;16.77;44.87;101474.06;5024474;27;97008;-75
2023/05/24 02:42:53;;;;;;;18.20;2.20;;;;;;;16.24;45.54;101466.84;5026020;27;98951;-75
2023/05/24 02:45:20;;;;;;;16.17;2.55;;;;;;;16.22;45.97;101470.50;5030301;27;98808;-76
2023/05/24 02:47:46;;;;;;;11.73;2.60;;;;;;;16.01;46.61;101476.88;5025123;27;97293;-75
2023/05/24 02:50:12;;;;;;;19.60;2.80;;;;;;;16.06;46.71;101473.03;5027496;27;97483;-75
2023/05/24 02:52:40;;;;;;;13.57;2.67;;;;;;;16.20;46.32;101470.59;5028581;27;99211;-75
2023/05/24 02:55:07;;;;;;;14.30;2.33;;;;;;;16.06;46.49;101478.38;5022333;27;99322;-75
2023/05/24 02:57:34;;;;;;;18.77;3.65;;;;;;;15.89;47.22;101481.81;5020305;27;96861;-77
2023/05/24 03:00:00;;;;;;;20.42;3.00;;;;;;;15.95;46.92;101475.31;5026332;27;99129;-75
2023/05/24 03:02:28;;;;;;;13.93;2.92;;;;;;;16.07;46.91;101487.25;5020113;27;97997;-75
2023/05/24 03:04:54;;;;;;;18.20;3.28;;;;;;;15.63;47.60;101481.25;5026312;27;101819;-76
2023/05/24 03:07:21;;;;;;;18.80;2.58;;;;;;;15.86;47.22;101475.75;5027223;27;96681;-76
2023/05/24 03:09:48;;;;;;;14.70;2.95;;;;;;;16.01;46.84;101469.72;5027630;27;96855;-76
2023/05/24 03:12:15;;;;;;;22.63;3.38;;;;;;;15.71;47.53;101482.66;5025613;27;98985;-76
2023/05/24 03:14:41;;;;;;;13.50;2.33;;;;;;;15.60;47.95;101476.06;5021802;27;98912;-76
2023/05/24 03:17:07;;;;;;;20.70;3.70;;;;;;;15.81;47.64;101483.09;5018469;27;96818;-76
2023/05/24 03:19:34;;;;;;;18.48;3.10;;;;;;;16.06;47.23;101482.84;5025271;27;97247;-76
2023/05/24 03:22:00;;;;;;;19.58;3.22;;;;;;;16.30;46.30;101466.53;5018628;27;99008;-75
2023/05/24 03:24:27;;;;;;;23.17;3.70;;;;;;;16.36;46.22;101478.72;5019367;27;99863;-75
2023/05/24 03:26:54;;;;;;;14.23;2.75;;;;;;;16.44;46.21;101481.03;5023635;27;96863;-75
2023/05/24 03:29:21;;;;;;;20.27;3.13;;;;;;;16.28;46.14;101479.06;5024114;27;97755;-75
2023/05/24 03:31:47;;;;;;;17.50;2.42;;;;;;;16.28;46.33;101479.06;5022783;27;98875;-76
2023/05/24 03:34:14;;;;;;;17.02;2.92;;;;;;;16.10;46.53;101487.94;5014527;27;98108;-76
2023/05/24 03:36:40;;;;;;;22.30;3.00;;;;;;;16.18;46.40;101491.13;5025367;27;97248;-76
2023/05/24 03:39:07;;;;;;;19.35;3.15;;;;;;;16.38;45.98;101491.97;5022924;27;96910;-76
2023/05/24 03:41:33;;;;;;;20.55;3.72;;;;;;;16.19;46.17;101495.53;5021371;27;99718;-75
2023/05/24 03:44:01;;;;;;;19.70;3.30;;;;;;;15.73;47.36;101491.44;5020150;27;99122;-74
2023/05/24 03:46:30;;;;;;;20.05;3.25;;;;;;;15.72;47.62;101495.03;5027085;27;96809;-75
2023/05/24 03:48:56;;;;;;;20.10;3.50;;;;;;;15.48;48.06;101496.97;5024138;27;97663;-75
2023/05/24 03:51:28;;;;;;;16.95;2.95;;;;;;;15.66;48.01;101494.44;5020452;27;101046;-75
2023/05/24 03:53:54;;;;;;;22.00;3.05;;;;;;;15.88;47.33;101490.72;5021295;27;98902;-76
2023/05/24 03:56:21;;;;;;;16.35;3.00;;;;;;;16.15;46.46;101493.06;5015237;27;97995;-76
2023/05/24 03:58:47;;;;;;;12.23;2.50;;;;;;;15.99;46.49;101492.91;5025876;27;97265;-75
2023/05/24 04:01:15;;;;;;;16.48;3.15;;;;;;;15.35;47.59;101489.59;5021824;27;98898;-74
2023/05/24 04:03:44;;;;;;;14.93;2.60;;;;;;;15.45;47.59;101491.75;5023958;27;99598;-75
2023/05/24 04:06:11;;;;;;;18.13;3.08;;;;;;;15.72;46.93;101488.84;5024398;27;96958;-75
2023/05/24 04:08:38;;;;;;;15.98;3.15;;;;;;;16.00;46.13;101493.78;5020686;27;97393;-76
2023/05/24 04:11:06;;;;;;;16.25;2.70;;;;;;;15.92;46.40;101496.81;5024447;27;99512;-75
2023/05/24 04:13:33;;;;;;;15.43;2.85;;;;;;;16.03;46.05;101496.28;5017811;27;98862;-76
2023/05/24 04:15:59;;;;;;;15.27;3.65;;;;;;;15.94;45.99;101495.81;5021296;27;96744;-75
2023/05/24 04:18:27;;;;;;;19.98;3.22;;;;;;;15.87;46.39;101504.16;5019483;27;96903;-75
2023/05/24 04:20:54;;;;;;;15.30;2.78;;;;;;;16.15;45.86;101503.72;5019423;27;99363;-76
2023/05/24 04:23:20;;;;;;;16.88;3.63;;;;;;;16.23;45.37;101507.75;5019384;27;99541;-77
2023/05/24 04:25:47;;;;;;;12.02;2.95;;;;;;;16.17;45.62;101508.06;5020070;27;96712;-77
2023/05/24 04:28:14;;;;;;;19.25;3.63;;;;;;;16.01;46.09;101504.38;5018349;27;96849;-75
2023/05/24 04:30:40;;;;;;;19.77;3.50;;;;;;;16.05;46.46;101511.28;5019039;27;97977;-75
2023/05/24 04:33:07;;;;;;;15.48;3.22;;;;;;;15.81;46.85;101509.75;5020732;27;97632;-75
2023/05/24 04:35:35;;;;;;;18.70;3.63;;;;;;;15.79;46.91;101509.81;5027916;27;97161;-75
2023/05/24 04:38:01;;;;;;;16.27;3.65;;;;;;;15.82;47.12;101509.66;5018128;27;96766;-75
2023/05/24 04:40:27;;;;;;;21.20;3.72;;;;;;;15.78;47.38;101513.41;5024538;27;100571;-74
2023/05/24 04:42:54;;;;;;;18.55;3.38;;;;;;;15.69;47.46;101512.94;5013985;27;98909;-73
2023/05/24 04:45:20;;;;;;;15.10;3.15;;;;;;;15.80;47.53;101518.69;5025900;27;98397;-75
2023/05/24 04:47:47;;;;;;;17.63;3.13;;;;;;;15.93;47.19;101528.72;5018202;27;96965;-76
2023/05/24 04:50:13;;;;;;;21.52;3.65;;;;;;;15.64;47.45;101529.13;5021474;27;99725;-77
2023/05/24 04:52:41;;;;;;;17.35;4.00;;;;;;;16.03;46.76;101530.94;5028746;27;101377;-75
2023/05/24 04:55:09;;;;;;;18.35;3.58;;;;;;;16.00;45.84;101531.09;5020531;27;97205;-76
2023/05/24 04:57:35;;;;;;;27.25;3.83;;;;;;;16.36;45.14;101532.06;5014075;27;98979;-75
2023/05/24 05:00:02;;;;;;;17.70;3.13;;;;;;;16.29;45.14;101544.81;5020827;27;97619;-75
2023/05/24 05:02:29;;;;;;;26.63;4.03;;;;;;;16.12;45.13;101547.41;5026627;27;99407;-75
2023/05/24 05:04:56;;;;;;;17.70;3.90;;;;;;;16.10;45.26;101540.41;5022099;27;97295;-75
2023/05/24 05:07:22;;;;;;;19.13;3.15;;;;;;;15.91;45.61;101551.03;5023952;27;97244;-75
2023/05/24 05:09:59;;;;;;;18.85;4.10;;;;;;;16.02;45.79;101548.75;5021266;27;99320;-75
2023/05/24 05:12:26;;;;;;;22.63;4.07;;;;;;;16.11;45.57;101545.66;5022819;27;99107;-75
2023/05/24 05:14:53;;;;;;;19.92;3.78;;;;;;;16.00;45.46;101550.63;5011937;27;96805;-75
2023/05/24 05:17:20;;;;;;;23.80;4.28;;;;;;;16.27;45.12;101553.84;5024469;27;97034;-75
2023/05/24 05:19:46;;;;;;;23.60;4.10;;;;;;;16.10;45.56;101559.06;5017752;27;99494;-76
2023/05/24 05:22:13;;;;;;;28.88;4.30;;;;;;;16.39;44.83;101552.41;5023665;27;101474;-77
2023/05/24 05:24:39;;;;;;;29.45;4.53;;;;;;;16.40;44.72;101559.47;5015888;27;98411;-75
2023/05/24 05:27:07;;;;;;;23.10;3.75;;;;;;;16.41;44.54;101559.38;5023030;27;98634;-75
2023/05/24 05:29:34;;;;;;;22.02;3.90;;;;;;;16.69;43.99;101564.31;5015587;27;101052;-74
2023/05/24 05:32:00;;;;;;;27.45;4.03;;;;;;;16.59;44.12;101557.66;5019903;27;98837;-77
2023/05/24 05:34:26;;;;;;;28.83;4.95;;;;;;;16.81;43.76;101569.06;5022189;27;96806;-75
2023/05/24 05:36:53;;;;;;;21.40;3.63;;;;;;;16.81;43.30;101568.19;5014180;27;96935;-75
2023/05/24 05:39:19;;;;;;;23.33;4.75;;;;;;;16.79;43.50;101570.09;5024947;27;98924;-75
2023/05/24 05:41:46;;;;;;;24.85;4.95;;;;;;;16.79;43.32;101581.63;5024192;27;98032;-75
2023/05/24 05:44:13;;;;;;;21.90;4.88;;;;;;;16.66;43.47;101576.00;5023861;27;96843;-74
2023/05/24 05:46:42;;;;;;;31.30;4.95;;;;;;;16.84;43.27;101578.72;5026482;27;97184;-76
2023/05/24 05:49:09;;;;;;;36.38;4.88;;;;;;;16.78;43.26;101585.22;5023562;27;101534;-76
2023/05/24 05:51:35;;;;;;;24.23;4.63;;;;;;;16.60;43.99;101586.13;5024881;27;97869;-75
2023/05/24 05:54:02;;;;;;;30.42;4.95;;;;;;;16.83;43.57;101587.66;5021383;27;97626;-76
2023/05/24 05:56:28;;;;;;;31.45;5.22;;;;;;;16.76;43.51;101591.56;5023158;27;98682;-76
2023/05/24 05:58:55;;;;;;;27.52;5.78;;;;;;;16.67;43.89;101591.06;5023802;27;98838;-75
2023/05/24 06:01:23;;;;;;;26.00;4.80;;;;;;;16.86;43.44;101596.41;5020807;27;99741;-75
2023/05/24 06:03:50;;;;;;;33.78;4.75;;;;;;;16.97;43.51;101602.09;5022285;27;96957;-75
2023/05/24 06:06:17;;;;;;;26.73;4.38;;;;;;;17.11;43.07;101594.28;5026698;27;97900;-75
2023/05/24 06:08:43;;;;;;;23.85;4.53;;;;;;;17.07;43.61;101598.00;5024047;27;99458;-74
2023/05/24 06:11:09;;;;;;;26.85;4.53;;;;;;;17.12;43.43;101598.69;5018785;27;99659;-75
2023/05/24 06:13:36;;;;;;;26.38;4.43;;;;;;;17.01;43.68;101602.78;5018069;27;97207;-76
2023/05/24 06:16:02;;;;;;;24.17;4.15;;;;;;;16.87;44.04;101605.28;5021782;27;97760;-75
2023/05/24 06:18:31;;;;;;;25.42;4.70;;;;;;;16.97;43.91;101610.09;5016075;27;99445;-76
2023/05/24 06:20:57;;;;;;;24.77;4.45;;;;;;;17.13;43.79;101610.22;5013455;27;97715;-75
2023/05/24 06:23:24;;;;;;;29.90;5.22;;;;;;;17.51;43.08;101614.53;5028961;27;96913;-75
2023/05/24 06:25:50;;;;;;;29.42;4.65;;;;;;;17.27;43.44;101609.53;5035246;27;96930;-75
2023/05/24 06:28:17;;;;;;;30.60;5.50;;;;;;;17.04;43.89;101611.53;5027939;27;99494;-74
2023/05/24 06:30:43;;;;;;;29.25;5.60;;;;;;;17.04;44.07;101616.88;5026591;27;97693;-75
2023/05/24 06:33:10;;;;;;;31.65;5.50;;;;;;;16.94;44.53;101614.69;5025660;27;96796;-76
2023/05/24 06:35:38;;;;;;;24.83;5.53;;;;;;;17.09;43.94;101614.84;5027516;27;96972;-75
2023/05/24 06:38:04;;;;;;;23.05;5.22;;;;;;;17.31;43.60;101620.00;5025704;27;98800;-75
2023/05/24 06:40:30;;;;;;;33.45;5.25;;;;;;;17.24;43.69;101620.38;5018878;27;98867;-75
2023/05/24 06:42:58;;;;;;;26.10;5.28;;;;;;;17.25;43.66;101622.09;5026169;27;98702;-75
2023/05/24 06:45:24;;;;;;;29.55;5.00;;;;;;;17.37;43.45;101625.03;5021896;27;97048;-76
2023/05/24 06:47:51;;;;;;;28.63;5.90;;;;;;;17.62;42.85;101630.03;5025686;27;98997;-74
2023/05/24 06:50:18;;;;;;;25.83;5.28;;;;;;;17.52;42.82;101634.09;5027958;27;98234;-75
2023/05/24 06:52:46;;;;;;;23.88;5.68;;;;;;;17.96;42.01;101634.50;5019693;27;97837;-77
2023/05/24 06:55:12;;;;;;;28.65;5.15;;;;;;;18.01;42.18;101634.25;5014184;27;98460;-72
2023/05/24 06:57:38;;;;;;;24.83;4.55;;;;;;;17.81;42.66;101644.19;5019774;27;99155;-73
2023/05/24 07:00:11;;;;;;;32.88;6.15;;;;;;;17.81;43.24;101644.19;5019010;27;97593;-72
2023/05/24 07:02:37;;;;;;;25.20;5.22;;;;;;;17.63;43.28;101647.81;5023010;27;97222;-73
2023/05/24 07:05:05;;;;;;;24.75;5.57;;;;;;;17.52;43.35;101644.78;5033334;27;98634;-75
2023/05/24 07:07:32;;;;;;;28.02;5.45;;;;;;;17.50;44.01;101654.66;5022222;27;99111;-77
2023/05/24 07:10:00;;;;;;;28.17;5.65;;;;;;;17.47;43.78;101644.13;5025913;27;99934;-76
2023/05/24 07:12:26;;;;;;;28.08;5.53;;;;;;;17.44;44.05;101646.97;5023051;27;97409;-76
2023/05/24 07:14:54;;;;;;;29.65;5.10;;;;;;;17.52;43.88;101650.97;5033260;27;97388;-75
2023/05/24 07:17:21;;;;;;;45.42;6.18;;;;;;;17.86;43.42;101652.81;5022014;27;98958;-76
2023/05/24 07:19:47;;;;;;;26.13;4.75;;;;;;;17.98;43.04;101650.50;5033605;27;97700;-76
2023/05/24 07:22:14;;;;;;;24.77;4.97;;;;;;;17.80;43.11;101663.84;5022213;27;97165;-75
2023/05/24 07:24:40;;;;;;;32.85;7.00;;;;;;;17.88;43.19;101661.66;5021703;27;97491;-75
2023/05/24 07:27:08;;;;;;;28.00;6.60;;;;;;;17.88;43.38;101666.13;5027876;27;101607;-76
2023/05/24 07:29:35;;;;;;;31.67;6.22;;;;;;;18.11;42.61;101663.13;5029635;27;99563;-76
2023/05/24 07:32:02;;;;;;;28.80;5.22;;;;;;;17.72;42.98;101666.03;5026103;27;97355;-76
2023/05/24 07:34:30;;;;;;;33.28;5.32;;;;;;;17.97;43.04;101670.16;5025551;27;97004;-76
2023/05/24 07:36:57;;;;;;;33.25;6.55;;;;;;;18.16;42.87;101669.09;5023664;27;102271;-76
2023/05/24 07:39:24;;;;;;;26.13;5.18;;;;;;;18.26;42.55;101669.47;5018398;27;98614;-75
2023/05/24 07:41:51;;;;;;;35.20;6.55;;;;;;;18.27;42.22;101685.44;5017808;27;97504;-76
2023/05/24 07:44:19;;;;;;;30.42;6.53;;;;;;;18.26;42.49;101677.50;5030002;27;97171;-75
2023/05/24 07:46:45;;;;;;;29.42;6.22;;;;;;;18.44;41.77;101681.91;5029287;27;99255;-75
2023/05/24 07:49:12;;;;;;;27.42;6.32;;;;;;;17.98;42.87;101686.13;5022877;27;98868;-75
2023/05/24 07:51:38;;;;;;;25.58;6.07;;;;;;;18.29;42.57;101688.06;5026902;27;96761;-76
2023/05/24 07:54:05;;;;;;;23.63;6.35;;;;;;;18.20;42.50;101688.53;5019365;27;99594;-75
2023/05/24 07:56:31;;;;;;;28.17;6.03;;;;;;;18.24;42.50;101692.78;5029232;27;99220;-76
2023/05/24 07:59:03;;;;;;;29.77;5.85;;;;;;;18.24;42.30;101696.31;5027272;27;98187;-76
2023/05/24 08:01:31;;;;;;;37.88;7.45;;;;;;;18.17;42.54;101704.75;5018640;27;97808;-75
2023/05/24 08:03:57;;;;;;;24.83;5.80;;;;;;;17.81;43.14;101694.97;5008072;27;99684;-76
2023/05/24 08:06:23;;;;;;;21.60;5.30;;;;;;;18.02;43.04;101700.19;5023062;27;98521;-76
2023/05/24 08:08:50;;;;;;;29.05;5.65;;;;;;;18.13;42.46;101689.78;5025799;27;98951;-77
2023/05/24 08:11:18;;;;;;;19.83;6.00;;;;;;;18.43;42.04;101690.88;5015423;27;97739;-77
2023/05/24 08:13:45;;;;;;;24.60;5.80;;;;;;;18.50;42.07;101696.75;5022206;27;96923;-78
2023/05/24 08:16:11;;;;;;;29.30;5.63;;;;;;;18.49;41.67;101695.03;5027602;27;98903;-77
2023/05/24 08:18:39;;;;;;;31.08;5.35;;;;;;;18.44;41.34;101697.94;5023164;27;99340;-75
2023/05/24 08:21:06;;;;;;;26.00;4.97;;;;;;;18.52;41.51;101703.75;5018040;27;97413;-74
2023/05/24 08:23:33;;;;;;;25.13;5.05;;;;;;;18.87;41.44;101696.53;5016386;27;97326;-74
2023/05/24 08:25:59;;;;;;;26.15;5.60;;;;;;;19.42;39.91;101699.66;5032147;27;98167;-76
2023/05/24 08:28:26;;;;;;;22.02;4.55;;;;;;;19.33;39.64;101702.84;5024229;27;98805;-75
2023/05/24 08:30:53;;;;;;;22.00;4.93;;;;;;;19.34;40.09;101704.59;5025302;27;97769;-76
2023/05/24 08:33:21;;;;;;;24.73;4.75;;;;;;;19.06;40.52;101696.34;5020664;27;96912;-74
2023/05/24 08:35:49;;;;;;;27.58;5.15;;;;;;;19.21;40.23;101702.69;5024088;27;98931;-73
2023/05/24 08:38:15;;;;;;;25.15;4.53;;;;;;;19.34;39.78;101715.31;5024826;27;99098;-74
2023/05/24 08:40:42;;;;;;;21.25;4.10;;;;;;;19.05;39.87;101711.56;5020962;27;97660;-74
2023/05/24 08:43:11;;;;;;;20.00;4.35;;;;;;;18.71;40.65;101719.69;5023765;27;96761;-78
2023/05/24 08:45:38;;;;;;;19.13;4.63;;;;;;;18.60;40.78;101714.06;5032075;27;98547;-76
2023/05/24 08:48:05;;;;;;;20.73;4.05;;;;;;;18.78;40.93;101725.59;5024447;27;99037;-76
2023/05/24 08:50:33;;;;;;;21.98;4.38;;;;;;;18.86;40.47;101715.34;5024952;27;97573;-75
2023/05/24 08:53:02;;;;;;;17.48;3.83;;;;;;;18.56;41.00;101725.91;5024183;27;97036;-74
2023/05/24 08:55:29;;;;;;;19.73;4.35;;;;;;;18.84;40.81;101723.44;5032313;27;100760;-75
2023/05/24 08:57:57;;;;;;;23.05;4.55;;;;;;;19.06;40.75;101724.00;5020587;27;99283;-74
2023/05/24 09:00:24;;;;;;;19.67;5.00;;;;;;;19.17;40.45;101720.72;5022351;27;97282;-75
2023/05/24 09:02:51;;;;;;;15.45;4.22;;;;;;;19.05;40.10;101732.13;5021104;27;97059;-76
2023/05/24 09:05:20;;;;;;;21.88;4.38;;;;;;;19.18;40.52;101729.63;5023077;27;98845;-77
2023/05/24 09:07:49;;;;;;;21.10;4.70;;;;;;;19.02;40.21;101733.19;5024836;27;98165;-76
2023/05/24 09:10:20;;;;;;;21.13;3.95;;;;;;;19.50;39.45;101737.63;5024353;27;98531;-76
2023/05/24 09:12:53;;;;;;;20.02;4.22;;;;;;;19.81;38.66;101739.41;5023901;27;97242;-75
2023/05/24 09:15:20;;;;;;;20.83;4.03;;;;;;;19.83;38.54;101742.84;5020705;27;101694;-76
2023/05/24 09:17:46;;;;;;;27.48;4.75;;;;;;;19.34;39.24;101739.41;5027076;27;99798;-74
2023/05/24 09:20:13;;;;;;;23.88;5.45;;;;;;;18.96;39.86;101746.91;5025379;27;97589;-74
2023/05/24 09:22:42;;;;;;;20.33;4.60;;;;;;;18.90;40.40;101733.00;5030408;27;98225;-77
2023/05/24 09:25:12;;;;;;;20.23;4.15;;;;;;;19.19;39.77;101739.41;5022122;27;102460;-75
2023/05/24 09:27:40;;;;;;;15.63;3.92;;;;;;;18.85;39.73;101737.69;5023735;27;99278;-76
2023/05/24 09:30:09;;;;;;;23.35;5.07;;;;;;;18.66;40.52;101736.03;5013854;27;97562;-74
2023/05/24 09:32:36;;;;;;;18.38;4.22;;;;;;;18.32;41.75;101738.72;5030550;27;97701;-75
2023/05/24 09:35:02;;;;;;;18.60;4.30;;;;;;;18.40;41.41;101738.31;5022680;27;97783;-75
2023/05/24 09:37:29;;;;;;;18.13;4.53;;;;;;;19.02;40.30;101732.31;5030345;27;98787;-75
2023/05/24 09:39:56;;;;;;;18.85;4.20;;;;;;;19.39;39.19;101731.97;5015710;27;97447;-75
2023/05/24 09:42:26;;;;;;;16.35;4.10;;;;;;;19.57;38.63;101729.22;5012498;27;97683;-76
2023/05/24 09:45:00;;;;;;;21.63;3.78;;;;;;;19.69;38.11;101733.91;5019121;27;98910;-77
2023/05/24 09:47:30;;;;;;;16.13;4.88;;;;;;;19.93;37.39;101732.47;5031559;27;98921;-76
2023/05/24 09:49:56;;;;;;;14.48;3.28;;;;;;;20.04;37.24;101737.19;5015518;27;96924;-75
2023/05/24 09:52:23;;;;;;;17.70;3.47;;;;;;;20.36;36.79;101740.66;5030409;27;96818;-76
2023/05/24 09:54:49;;;;;;;13.85;3.45;;;;;;;20.08;37.04;101747.66;5031260;27;99111;-75
2023/05/24 09:57:16;;;;;;;14.90;3.35;;;;;;;20.00;36.83;101744.56;5027747;27;98888;-75
2023/05/24 09:59:43;;;;;;;21.52;4.32;;;;;;;20.29;37.01;101751.72;5016617;27;97468;-75
2023/05/24 10:02:12;;;;;;;13.55;3.40;;;;;;;19.38;38.73;101748.13;5009603;27;97250;-75
2023/05/24 10:04:38;;;;;;;18.58;4.07;;;;;;;19.30;38.71;101748.56;5018260;27;100182;-75
2023/05/24 10:07:06;;;;;;;20.38;4.53;;;;;;;19.08;39.18;101753.41;5019711;27;99014;-75
2023/05/24 10:09:34;;;;;;;15.55;4.35;;;;;;;19.25;39.18;101753.31;5014910;27;97328;-75
2023/05/24 10:12:03;;;;;;;19.02;3.38;;;;;;;19.39;39.21;101758.78;5019561;27;97809;-75
2023/05/24 10:14:32;;;;;;;16.13;3.75;;;;;;;19.56;38.87;101767.72;5024291;27;98991;-75
2023/05/24 10:16:59;;;;;;;21.75;4.90;;;;;;;19.45;38.85;101761.09;5014829;27;101390;-76
2023/05/24 10:19:27;;;;;;;14.40;4.00;;;;;;;19.84;37.94;101751.75;5013985;27;97806;-76
2023/05/24 10:21:56;;;;;;;15.52;4.28;;;;;;;19.91;38.07;101747.78;5005941;27;97180;-75
2023/05/24 10:24:26;;;;;;;18.50;3.80;;;;;;;20.17;37.93;101751.59;5019957;27;98993;-75
2023/05/24 10:26:55;;;;;;;17.48;3.47;;;;;;;20.00;38.48;101755.28;5019832;27;97670;-74
2023/05/24 10:29:34;;;;;;;17.45;4.55;;;;;;;19.87;38.48;101746.22;5006557;27;97050;-75
2023/05/24 10:32:03;;;;;;;12.63;3.35;;;;;;;20.42;37.79;101754.56;5019915;27;96990;-74
2023/05/24 10:34:31;;;;;;;28.75;4.90;;;;;;;20.33;37.55;101747.09;5019862;27;98945;-74
2023/05/24 10:36:58;;;;;;;15.43;3.42;;;;;;;20.55;37.07;101755.53;5020162;27;98955;-75
2023/05/24 10:39:25;;;;;;;16.70;3.55;;;;;;;20.74;36.33;101757.13;5017614;27;97850;-75
2023/05/24 10:41:52;;;;;;;16.08;3.25;;;;;;;20.78;36.26;101754.13;5019577;27;96900;-75
2023/05/24 10:44:19;;;;;;;19.95;4.35;;;;;;;21.44;35.34;101757.09;5024021;27;97971;-75
2023/05/24 10:47:02;;;;;;;16.60;4.55;;;;;;;21.48;35.09;101755.91;5024275;27;102191;-75
2023/05/24 10:49:28;;;;;;;14.32;3.40;;;;;;;21.84;33.92;101757.16;5016598;27;97464;-76
2023/05/24 10:52:01;;;;;;;12.98;2.83;;;;;;;21.63;34.81;101755.88;5026192;27;97316;-75
2023/05/24 10:54:27;;;;;;;18.98;3.75;;;;;;;21.56;34.58;101757.25;5021424;27;99018;-75
2023/05/24 10:56:55;;;;;;;13.98;3.70;;;;;;;21.59;34.57;101763.28;5025956;27;98052;-75
2023/05/24 10:59:24;;;;;;;13.05;3.70;;;;;;;21.92;33.97;101757.50;5018113;27;96882;-75
2023/05/24 11:01:57;;;;;;;15.10;3.33;;;;;;;21.32;34.27;101759.69;5021484;27;97146;-76
2023/05/24 11:04:25;;;;;;;11.48;3.33;;;;;;;21.15;34.66;101755.34;5014582;27;97882;-76
2023/05/24 11:06:55;;;;;;;11.35;2.78;;;;;;;20.87;34.99;101758.91;5012039;27;98905;-75
2023/05/24 11:09:26;;;;;;;14.95;3.58;;;;;;;21.20;34.87;101763.19;5017981;27;97061;-77
2023/05/24 11:11:57;;;;;;;12.63;2.88;;;;;;;21.03;35.43;101762.38;5021004;27;101202;-75
2023/05/24 11:14:27;;;;;;;14.35;2.97;;;;;;;20.84;35.61;101755.56;5024422;27;99212;-75
2023/05/24 11:16:54;;;;;;;18.10;4.20;;;;;;;20.59;35.79;101762.47;5013462;27;99196;-75
2023/05/24 11:19:22;;;;;;;10.65;2.92;;;;;;;20.07;35.88;101766.53;5011873;27;99235;-76